createdAt,value
2023-05-10T00:00:37.794Z,93056.34
2023-05-10T00:03:07.355Z,93046.50
2023-05-10T00:05:36.838Z,93045.25
2023-05-10T00:08:06.740Z,93044.53
2023-05-10T00:10:38.656Z,93047.13
2023-05-10T00:13:08.250Z,93049.47
2023-05-10T00:15:37.685Z,93046.38
2023-05-10T00:18:07.256Z,93042.47
2023-05-10T00:20:36.783Z,93039.59
2023-05-10T00:23:06.573Z,93038.59
2023-05-10T00:25:37.493Z,93039.50
2023-05-10T00:28:07.321Z,93042.50
2023-05-10T00:30:39.137Z,93042.25
2023-05-10T00:33:08.799Z,93035.66
2023-05-10T00:35:39.246Z,93033.38
2023-05-10T00:38:08.763Z,93032.09
2023-05-10T00:40:40.908Z,93036.50
2023-05-10T00:43:10.484Z,93035.25
2023-05-10T00:45:41.032Z,93037.69
2023-05-10T00:49:43.370Z,93035.91
2023-05-10T00:52:13.256Z,93031.81
2023-05-10T00:54:42.837Z,93023.38
2023-05-10T00:57:12.299Z,93029.66
2023-05-10T00:59:41.796Z,93029.28
2023-05-10T01:02:11.258Z,93020.84
2023-05-10T01:04:43.093Z,93026.09
2023-05-10T01:07:12.988Z,93022.50
2023-05-10T01:09:42.622Z,93031.78
2023-05-10T01:12:12.282Z,93026.50
2023-05-10T01:14:42.170Z,93031.38
2023-05-10T01:17:12.814Z,93025.25
2023-05-10T01:19:45.022Z,93026.53
2023-05-10T01:22:42.499Z,93021.19
2023-05-10T01:25:52.346Z,93020.75
2023-05-10T01:29:17.600Z,93018.78
2023-05-10T01:32:17.234Z,93024.53
2023-05-10T01:34:55.329Z,93020.13
2023-05-10T01:37:34.415Z,93023.19
2023-05-10T01:40:15.029Z,93022.34
2023-05-10T01:42:51.256Z,93026.13
2023-05-10T01:45:30.021Z,93025.03
2023-05-10T01:48:09.976Z,93032.22
2023-05-10T01:50:44.489Z,93030.72
2023-05-10T01:53:16.857Z,93031.88
2023-05-10T01:55:54.905Z,93023.75
2023-05-10T01:58:29.985Z,93023.28
2023-05-10T02:01:01.950Z,93022.88
2023-05-10T02:03:35.665Z,93031.56
2023-05-10T02:06:06.246Z,93034.22
2023-05-10T02:08:39.294Z,93023.78
2023-05-10T02:11:09.188Z,93024.09
2023-05-10T02:13:41.506Z,93022.09
2023-05-10T02:16:11.820Z,93012.34
2023-05-10T02:18:44.166Z,93013.16
2023-05-10T02:21:14.423Z,93014.66
2023-05-10T02:23:44.065Z,93018.00
2023-05-10T02:26:16.283Z,93016.91
2023-05-10T02:28:46.673Z,93021.44
2023-05-10T02:31:17.668Z,93016.50
2023-05-10T02:33:49.508Z,93014.25
2023-05-10T02:36:20.059Z,93008.03
2023-05-10T02:38:52.461Z,93011.25
2023-05-10T02:41:23.969Z,93011.56
2023-05-10T02:43:58.908Z,93009.16
2023-05-10T02:46:28.712Z,93022.78
2023-05-10T02:48:59.784Z,93021.94
2023-05-10T02:51:34.992Z,93020.19
2023-05-10T02:54:13.239Z,93019.16
2023-05-10T02:56:50.224Z,93025.09
2023-05-10T02:59:19.910Z,93033.47
2023-05-10T03:01:49.629Z,93026.63
2023-05-10T03:04:20.647Z,93027.88
2023-05-10T03:06:50.407Z,93027.78
2023-05-10T03:09:20.514Z,93028.13
2023-05-10T03:12:09.939Z,93027.59
2023-05-10T03:14:55.481Z,93025.09
2023-05-10T03:17:33.113Z,93028.44
2023-05-10T03:20:10.995Z,93020.66
2023-05-10T03:22:48.486Z,93021.09
2023-05-10T03:25:19.956Z,93032.63
2023-05-10T03:27:50.284Z,93039.91
2023-05-10T03:30:21.284Z,93037.06
2023-05-10T03:32:50.801Z,93033.22
2023-05-10T03:35:21.693Z,93040.56
2023-05-10T03:37:51.186Z,93032.53
2023-05-10T03:40:20.814Z,93034.69
2023-05-10T03:42:50.397Z,93037.97
2023-05-10T03:45:20.259Z,93037.03
2023-05-10T03:50:42.719Z,93033.72
2023-05-10T03:53:12.088Z,93032.78
2023-05-10T03:55:41.635Z,93036.19
2023-05-10T03:58:14.629Z,93038.63
2023-05-10T04:00:46.421Z,93036.09
2023-05-10T04:03:16.703Z,93049.53
2023-05-10T04:05:47.714Z,93045.69
2023-05-10T04:08:17.667Z,93053.00
2023-05-10T04:10:47.260Z,93051.59
2023-05-10T04:13:16.697Z,93047.66
2023-05-10T04:15:46.195Z,93051.38
2023-05-10T04:18:15.602Z,93054.47
2023-05-10T04:20:46.605Z,93052.56
2023-05-10T04:23:17.867Z,93057.75
2023-05-10T04:25:47.347Z,93048.09
2023-05-10T04:28:16.952Z,93046.34
2023-05-10T04:30:46.709Z,93048.00
2023-05-10T04:33:16.349Z,93042.06
2023-05-10T04:35:47.226Z,93049.03
2023-05-10T04:38:16.745Z,93047.16
2023-05-10T04:40:46.148Z,93046.06
2023-05-10T04:43:15.605Z,93044.88
2023-05-10T04:45:45.204Z,93039.25
2023-05-10T04:48:14.883Z,93037.69
2023-05-10T04:50:44.373Z,93044.16
2023-05-10T04:53:16.063Z,93051.66
2023-05-10T04:55:45.984Z,93049.56
2023-05-10T04:58:15.430Z,93045.66
2023-05-10T05:00:45.423Z,93046.59
2023-05-10T05:03:15.059Z,93038.69
2023-05-10T05:05:44.560Z,93045.94
2023-05-10T05:08:15.525Z,93046.75
2023-05-10T05:10:45.015Z,93049.19
2023-05-10T05:13:16.252Z,93049.19
2023-05-10T05:15:45.950Z,93047.59
2023-05-10T05:18:15.339Z,93045.84
2023-05-10T05:20:44.783Z,93055.75
2023-05-10T05:23:15.652Z,93058.09
2023-05-10T05:25:45.146Z,93060.41
2023-05-10T05:28:14.549Z,93067.09
2023-05-10T05:30:43.959Z,93068.59
2023-05-10T05:33:13.497Z,93072.59
2023-05-10T05:35:44.069Z,93066.00
2023-05-10T05:38:14.978Z,93062.38
2023-05-10T05:40:44.397Z,93066.16
2023-05-10T05:43:13.907Z,93066.09
2023-05-10T05:45:43.430Z,93070.38
2023-05-10T05:48:12.988Z,93069.53
2023-05-10T05:50:42.569Z,93072.03
2023-05-10T05:53:13.929Z,93078.72
2023-05-10T05:55:43.348Z,93077.50
2023-05-10T05:58:14.004Z,93081.03
2023-05-10T06:00:43.394Z,93076.03
2023-05-10T06:03:13.069Z,93085.41
2023-05-10T06:05:42.767Z,93090.59
2023-05-10T06:08:13.595Z,93079.09
2023-05-10T06:10:43.037Z,93083.81
2023-05-10T06:13:12.730Z,93090.50
2023-05-10T06:15:42.158Z,93086.50
2023-05-10T06:18:11.639Z,93091.69
2023-05-10T06:20:41.122Z,93088.59
2023-05-10T06:23:10.623Z,93091.97
2023-05-10T06:25:41.586Z,93085.44
2023-05-10T06:28:11.173Z,93093.81
2023-05-10T06:30:40.826Z,93091.78
2023-05-10T06:33:10.426Z,93099.88
2023-05-10T06:35:40.235Z,93096.22
2023-05-10T06:38:09.685Z,93095.28
2023-05-10T06:40:43.577Z,93098.72
2023-05-10T06:43:13.991Z,93094.31
2023-05-10T06:45:43.435Z,93092.72
2023-05-10T06:50:42.993Z,93095.75
2023-05-10T06:53:13.072Z,93098.72
2023-05-10T06:55:42.888Z,93100.25
2023-05-10T06:58:12.404Z,93100.91
2023-05-10T07:00:44.948Z,93091.94
2023-05-10T07:03:14.751Z,93096.63
2023-05-10T07:05:46.008Z,93092.59
2023-05-10T07:08:15.838Z,93099.34
2023-05-10T07:10:45.321Z,93107.28
2023-05-10T07:13:14.919Z,93100.00
2023-05-10T07:15:44.479Z,93104.19
2023-05-10T07:18:14.104Z,93111.91
2023-05-10T07:20:45.056Z,93106.91
2023-05-10T07:23:14.765Z,93105.34
2023-05-10T07:25:44.468Z,93107.53
2023-05-10T07:28:14.090Z,93112.66
2023-05-10T07:30:43.777Z,93108.78
2023-05-10T07:33:14.831Z,93110.63
2023-05-10T07:35:46.221Z,93106.56
2023-05-10T07:38:15.856Z,93110.75
2023-05-10T07:40:45.390Z,93112.03
2023-05-10T07:43:14.928Z,93111.47
2023-05-10T07:45:44.568Z,93109.81
2023-05-10T07:48:14.170Z,93100.84
2023-05-10T07:50:45.151Z,93112.22
2023-05-10T07:53:14.787Z,93105.13
2023-05-10T07:55:44.384Z,93103.06
2023-05-10T07:58:13.882Z,93105.63
2023-05-10T08:00:43.419Z,93108.56
2023-05-10T08:03:13.179Z,93107.00
2023-05-10T08:05:44.749Z,93110.00
2023-05-10T08:08:14.348Z,93107.69
2023-05-10T08:10:43.926Z,93111.56
2023-05-10T08:13:13.449Z,93112.38
2023-05-10T08:15:42.945Z,93112.41
2023-05-10T08:18:12.449Z,93108.84
2023-05-10T08:20:41.968Z,93111.56
2023-05-10T08:23:14.468Z,93105.59
2023-05-10T08:25:44.229Z,93111.72
2023-05-10T08:28:13.745Z,93112.47
2023-05-10T08:30:43.552Z,93115.13
2023-05-10T08:33:13.237Z,93107.59
2023-05-10T08:35:42.770Z,93118.50
2023-05-10T08:38:14.004Z,93108.75
2023-05-10T08:40:46.127Z,93108.09
2023-05-10T08:43:17.241Z,93111.13
2023-05-10T08:45:48.421Z,93120.50
2023-05-10T08:48:18.870Z,93112.16
2023-05-10T08:50:50.060Z,93110.44
2023-05-10T08:53:22.785Z,93113.22
2023-05-10T08:55:52.062Z,93111.28
2023-05-10T08:58:22.549Z,93114.09
2023-05-10T09:00:53.764Z,93125.84
2023-05-10T09:03:23.327Z,93126.00
2023-05-10T09:05:53.060Z,93121.56
2023-05-10T09:08:26.743Z,93125.13
2023-05-10T09:10:57.774Z,93128.22
2023-05-10T09:13:28.521Z,93119.50
2023-05-10T09:16:02.111Z,93117.66
2023-05-10T09:18:36.511Z,93131.69
2023-05-10T09:21:06.667Z,93127.97
2023-05-10T09:23:38.065Z,93121.69
2023-05-10T09:26:08.258Z,93115.25
2023-05-10T09:28:52.474Z,93112.41
2023-05-10T09:31:22.093Z,93125.50
2023-05-10T09:33:52.990Z,93125.00
2023-05-10T09:36:22.480Z,93113.72
2023-05-10T09:38:55.275Z,93117.50
2023-05-10T09:41:26.476Z,93108.22
2023-05-10T09:43:59.802Z,93114.16
2023-05-10T09:46:29.337Z,93110.88
2023-05-10T09:50:43.068Z,93105.56
2023-05-10T09:53:12.498Z,93108.72
2023-05-10T09:55:46.109Z,93103.63
2023-05-10T09:58:16.380Z,93098.47
2023-05-10T10:00:49.155Z,93107.59
2023-05-10T10:03:22.237Z,93102.69
2023-05-10T10:05:54.585Z,93103.03
2023-05-10T10:08:24.312Z,93108.16
2023-05-10T10:10:53.772Z,93097.41
2023-05-10T10:13:23.243Z,93095.50
2023-05-10T10:15:54.058Z,93093.03
2023-05-10T10:18:28.447Z,93092.00
2023-05-10T10:20:59.925Z,93096.00
2023-05-10T10:23:30.740Z,93097.59
2023-05-10T10:26:01.332Z,93096.03
2023-05-10T10:28:42.225Z,93086.66
2023-05-10T10:31:27.108Z,93092.53
2023-05-10T10:34:11.019Z,93093.94
2023-05-10T10:36:50.464Z,93089.53
2023-05-10T10:39:20.601Z,93091.31
2023-05-10T10:41:55.486Z,93103.66
2023-05-10T10:44:36.118Z,93095.91
2023-05-10T10:47:12.614Z,93099.25
2023-05-10T10:49:52.551Z,93100.41
2023-05-10T10:52:30.448Z,93099.00
2023-05-10T10:55:06.537Z,93102.88
2023-05-10T10:57:46.978Z,93095.56
2023-05-10T11:00:32.218Z,93102.78
2023-05-10T11:03:07.812Z,93102.56
2023-05-10T11:05:43.749Z,93100.66
2023-05-10T11:08:20.831Z,93101.69
2023-05-10T11:11:09.548Z,93100.34
2023-05-10T11:13:43.392Z,93097.69
2023-05-10T11:16:19.397Z,93093.25
2023-05-10T11:19:03.334Z,93081.09
2023-05-10T11:21:34.078Z,93091.75
2023-05-10T11:24:17.404Z,93090.09
2023-05-10T11:26:47.140Z,93092.28
2023-05-10T11:29:17.109Z,93089.88
2023-05-10T11:31:48.051Z,93086.31
2023-05-10T11:34:27.841Z,93088.16
2023-05-10T11:36:58.966Z,93085.88
2023-05-10T11:39:32.095Z,93086.72
2023-05-10T11:42:02.564Z,93083.09
2023-05-10T11:44:33.751Z,93081.16
2023-05-10T11:47:04.490Z,93076.34
2023-05-10T11:49:34.212Z,93081.22
2023-05-10T11:52:10.093Z,93078.00
2023-05-10T11:54:47.041Z,93085.63
2023-05-10T11:57:16.491Z,93083.56
2023-05-10T11:59:46.972Z,93082.34
2023-05-10T12:02:17.373Z,93083.50
2023-05-10T12:04:47.080Z,93072.31
2023-05-10T12:07:16.672Z,93077.78
2023-05-10T12:10:02.976Z,93074.84
2023-05-10T12:12:40.702Z,93071.72
2023-05-10T12:15:15.061Z,93069.09
2023-05-10T12:17:44.404Z,93065.66
2023-05-10T12:20:19.646Z,93068.84
2023-05-10T12:22:52.296Z,93069.66
2023-05-10T12:25:26.130Z,93068.09
2023-05-10T12:27:58.233Z,93071.97
2023-05-10T12:30:29.524Z,93068.09
2023-05-10T12:33:04.691Z,93064.13
2023-05-10T12:35:34.760Z,93056.63
2023-05-10T12:38:04.348Z,93057.78
2023-05-10T12:40:35.322Z,93060.38
2023-05-10T12:43:04.816Z,93062.69
2023-05-10T12:45:34.464Z,93048.28
2023-05-10T12:50:42.256Z,93051.28
2023-05-10T12:53:11.614Z,93051.25
2023-05-10T12:55:41.082Z,93051.88
2023-05-10T12:58:11.312Z,93054.03
2023-05-10T13:00:42.936Z,93050.69
2023-05-10T13:03:12.434Z,93047.97
2023-05-10T13:05:43.435Z,93041.78
2023-05-10T13:08:13.055Z,93044.31
2023-05-10T13:10:42.704Z,93036.84
2023-05-10T13:13:12.231Z,93038.44
2023-05-10T13:15:41.498Z,93030.47
2023-05-10T13:18:11.139Z,93027.66
2023-05-10T13:20:42.353Z,93024.59
2023-05-10T13:23:11.811Z,93016.75
2023-05-10T13:25:41.508Z,93020.47
2023-05-10T13:28:11.015Z,93014.06
2023-05-10T13:30:40.385Z,93018.88
2023-05-10T13:33:09.863Z,93013.66
2023-05-10T13:35:39.343Z,93008.19
2023-05-10T13:38:10.568Z,93005.63
2023-05-10T13:40:39.938Z,93002.72
2023-05-10T13:43:09.332Z,93007.25
2023-05-10T13:45:38.645Z,92998.34
2023-05-10T13:48:08.495Z,93004.41
2023-05-10T13:50:38.040Z,93002.72
2023-05-10T13:53:09.071Z,92999.16
2023-05-10T13:55:38.461Z,92995.03
2023-05-10T13:58:07.713Z,92996.75
2023-05-10T14:00:37.159Z,92999.75
2023-05-10T14:03:08.164Z,92999.28
2023-05-10T14:05:37.737Z,92989.56
2023-05-10T14:08:10.620Z,92988.44
2023-05-10T14:10:40.673Z,92985.81
2023-05-10T14:13:09.876Z,92988.06
2023-05-10T14:15:39.326Z,92985.81
2023-05-10T14:18:08.798Z,92992.34
2023-05-10T14:20:38.147Z,92988.69
2023-05-10T14:23:11.677Z,92986.66
2023-05-10T14:25:42.321Z,92984.63
2023-05-10T14:28:12.136Z,92992.25
2023-05-10T14:30:41.588Z,92987.97
2023-05-10T14:33:11.193Z,92983.06
2023-05-10T14:35:40.866Z,92986.88
2023-05-10T14:38:12.047Z,92990.09
2023-05-10T14:40:41.492Z,92980.94
2023-05-10T14:43:10.988Z,92994.00
2023-05-10T14:45:40.649Z,92994.50
2023-05-10T14:48:13.356Z,92989.25
2023-05-10T14:50:42.470Z,92991.41
2023-05-10T14:53:13.659Z,92988.19
2023-05-10T14:55:43.542Z,92984.97
2023-05-10T14:58:13.032Z,92985.34
2023-05-10T15:00:42.846Z,92988.91
2023-05-10T15:03:13.370Z,92992.72
2023-05-10T15:05:43.328Z,92988.44
2023-05-10T15:08:14.115Z,92987.47
2023-05-10T15:10:44.113Z,92997.09
2023-05-10T15:13:13.529Z,92992.47
2023-05-10T15:15:42.822Z,92991.75
2023-05-10T15:18:12.744Z,92993.00
2023-05-10T15:20:42.468Z,92991.56
2023-05-10T15:23:13.728Z,92985.03
2023-05-10T15:25:43.154Z,92984.91
2023-05-10T15:28:12.454Z,92986.69
2023-05-10T15:30:41.923Z,92994.19
2023-05-10T15:33:12.515Z,92988.22
2023-05-10T15:35:42.203Z,92988.22
2023-05-10T15:38:14.576Z,92988.13
2023-05-10T15:40:44.031Z,92988.94
2023-05-10T15:43:13.921Z,92984.41
2023-05-10T15:45:43.598Z,92986.34
2023-05-10T15:50:42.704Z,92976.84
2023-05-10T15:53:12.251Z,92990.13
2023-05-10T15:55:41.743Z,92993.78
2023-05-10T15:58:11.565Z,92990.34
2023-05-10T16:00:41.358Z,92994.63
2023-05-10T16:03:10.874Z,92989.50
2023-05-10T16:05:42.104Z,92992.34
2023-05-10T16:08:11.567Z,92988.81
2023-05-10T16:10:41.068Z,92993.53
2023-05-10T16:13:11.005Z,92989.47
2023-05-10T16:15:40.418Z,92992.22
2023-05-10T16:18:10.013Z,92995.16
2023-05-10T16:20:41.027Z,92988.28
2023-05-10T16:23:10.619Z,92985.19
2023-05-10T16:25:40.084Z,92988.72
2023-05-10T16:28:09.679Z,92991.69
2023-05-10T16:30:39.290Z,92995.47
2023-05-10T16:33:08.824Z,92997.25
2023-05-10T16:35:38.457Z,92986.19
2023-05-10T16:38:10.502Z,92993.31
2023-05-10T16:40:40.035Z,92996.13
2023-05-10T16:43:09.431Z,92999.91
2023-05-10T16:45:38.856Z,92993.03
2023-05-10T16:48:08.936Z,93001.91
2023-05-10T16:50:39.264Z,93002.16
2023-05-10T16:53:11.859Z,92999.25
2023-05-10T16:55:41.097Z,93001.75
2023-05-10T16:58:10.568Z,93002.72
2023-05-10T17:00:40.080Z,93006.34
2023-05-10T17:03:09.717Z,93011.09
2023-05-10T17:05:39.252Z,93009.63
2023-05-10T17:08:10.616Z,93008.44
2023-05-10T17:10:42.829Z,93010.63
2023-05-10T17:13:12.652Z,93005.88
2023-05-10T17:15:42.199Z,93011.28
2023-05-10T17:18:11.778Z,93016.09
2023-05-10T17:20:41.164Z,93019.34
2023-05-10T17:23:12.061Z,93019.06
2023-05-10T17:25:42.283Z,93012.38
2023-05-10T17:28:11.763Z,93019.38
2023-05-10T17:30:41.313Z,93019.50
2023-05-10T17:33:10.911Z,93018.16
2023-05-10T17:35:40.393Z,93016.38
2023-05-10T17:38:11.386Z,93021.28
2023-05-10T17:40:43.314Z,93018.69
2023-05-10T17:43:12.793Z,93025.56
2023-05-10T17:45:42.328Z,93019.41
2023-05-10T17:48:12.329Z,93020.97
2023-05-10T17:50:44.722Z,93017.53
2023-05-10T17:53:15.628Z,93025.34
2023-05-10T17:55:45.304Z,93021.09
2023-05-10T17:58:15.340Z,93023.69
2023-05-10T18:00:44.971Z,93030.88
2023-05-10T18:03:14.642Z,93029.19
2023-05-10T18:05:44.304Z,93035.03
2023-05-10T18:08:15.308Z,93039.22
2023-05-10T18:10:44.694Z,93042.53
2023-05-10T18:13:14.729Z,93048.06
2023-05-10T18:15:44.229Z,93051.63
2023-05-10T18:18:13.928Z,93055.91
2023-05-10T18:20:44.233Z,93061.13
2023-05-10T18:23:15.530Z,93061.13
2023-05-10T18:25:45.052Z,93070.00
2023-05-10T18:28:14.644Z,93063.94
2023-05-10T18:30:44.382Z,93071.84
2023-05-10T18:33:14.005Z,93072.19
2023-05-10T18:35:43.553Z,93071.34
2023-05-10T18:38:14.546Z,93075.94
2023-05-10T18:40:44.620Z,93082.91
2023-05-10T18:43:14.100Z,93083.88
2023-05-10T18:45:44.154Z,93082.50
2023-05-10T18:50:42.219Z,93084.47
2023-05-10T18:53:11.673Z,93088.19
2023-05-10T18:55:41.168Z,93085.91
2023-05-10T18:58:10.676Z,93092.34
2023-05-10T19:00:40.194Z,93088.56
2023-05-10T19:03:09.624Z,93094.91
2023-05-10T19:05:40.773Z,93090.66
2023-05-10T19:08:10.314Z,93087.09
2023-05-10T19:10:39.756Z,93088.81
2023-05-10T19:13:09.301Z,93087.22
2023-05-10T19:15:39.495Z,93083.56
2023-05-10T19:18:09.803Z,93086.25
2023-05-10T19:20:42.467Z,93088.03
2023-05-10T19:23:12.156Z,93091.69
2023-05-10T19:25:42.582Z,93091.16
2023-05-10T19:28:11.995Z,93088.09
2023-05-10T19:30:41.596Z,93084.44
2023-05-10T19:33:12.828Z,93075.78
2023-05-10T19:35:43.816Z,93081.72
2023-05-10T19:38:13.461Z,93079.84
2023-05-10T19:40:43.108Z,93080.78
2023-05-10T19:43:12.700Z,93085.91
2023-05-10T19:45:42.282Z,93081.84
2023-05-10T19:48:12.875Z,93078.41
2023-05-10T19:50:44.624Z,93078.88
2023-05-10T19:53:14.376Z,93074.50
2023-05-10T19:55:43.881Z,93076.94
2023-05-10T19:58:13.617Z,93074.50
2023-05-10T20:00:43.240Z,93077.13
2023-05-10T20:03:12.664Z,93067.41
2023-05-10T20:05:43.686Z,93071.16
2023-05-10T20:08:13.143Z,93073.88
2023-05-10T20:10:42.709Z,93065.88
2023-05-10T20:13:12.313Z,93072.84
2023-05-10T20:15:41.815Z,93070.63
2023-05-10T20:18:11.384Z,93074.66
2023-05-10T20:20:43.510Z,93077.66
2023-05-10T20:23:12.830Z,93080.16
2023-05-10T20:25:42.361Z,93079.44
2023-05-10T20:28:13.399Z,93079.16
2023-05-10T20:30:42.809Z,93074.91
2023-05-10T20:33:12.245Z,93073.13
2023-05-10T20:35:43.093Z,93082.81
2023-05-10T20:38:12.677Z,93083.81
2023-05-10T20:40:42.230Z,93081.22
2023-05-10T20:43:11.919Z,93084.47
2023-05-10T20:45:41.584Z,93078.44
2023-05-10T20:48:11.203Z,93080.94
2023-05-10T20:50:40.732Z,93075.66
2023-05-10T20:53:11.614Z,93085.22
2023-05-10T20:55:41.391Z,93082.63
2023-05-10T20:58:10.946Z,93086.97
2023-05-10T21:00:40.335Z,93086.13
2023-05-10T21:03:09.910Z,93083.34
2023-05-10T21:05:39.421Z,93088.44
2023-05-10T21:08:10.342Z,93085.22
2023-05-10T21:10:39.849Z,93084.47
2023-05-10T21:13:09.290Z,93088.94
2023-05-10T21:15:38.715Z,93083.00
2023-05-10T21:18:08.602Z,93084.88
2023-05-10T21:20:38.122Z,93077.06
2023-05-10T21:23:07.519Z,93076.06
2023-05-10T21:25:38.617Z,93082.09
2023-05-10T21:28:08.168Z,93078.38
2023-05-10T21:30:37.697Z,93073.56
2023-05-10T21:33:07.337Z,93077.06
2023-05-10T21:35:39.561Z,93080.78
2023-05-10T21:38:09.293Z,93079.78
2023-05-10T21:40:41.362Z,93074.69
2023-05-10T21:43:11.558Z,93065.00
2023-05-10T21:45:41.551Z,93061.69
2023-05-10T21:50:44.034Z,93070.22
2023-05-10T21:53:13.768Z,93069.66
2023-05-10T21:55:43.273Z,93064.88
2023-05-10T21:58:12.719Z,93059.84
2023-05-10T22:00:42.319Z,93062.72
2023-05-10T22:03:11.885Z,93058.91
2023-05-10T22:05:43.065Z,93061.50
2023-05-10T22:08:12.575Z,93061.31
2023-05-10T22:10:42.221Z,93059.69
2023-05-10T22:13:11.704Z,93054.00
2023-05-10T22:15:41.201Z,93057.09
2023-05-10T22:18:10.715Z,93054.13
2023-05-10T22:20:41.585Z,93051.31
2023-05-10T22:23:11.098Z,93049.84
2023-05-10T22:25:40.653Z,93050.00
2023-05-10T22:28:10.286Z,93051.28
2023-05-10T22:30:39.825Z,93050.06
2023-05-10T22:33:09.535Z,93049.84
2023-05-10T22:35:39.005Z,93043.88
2023-05-10T22:38:09.791Z,93036.75
2023-05-10T22:40:39.415Z,93033.50
2023-05-10T22:43:08.850Z,93036.84
2023-05-10T22:45:38.382Z,93035.34
2023-05-10T22:48:08.615Z,93030.22
2023-05-10T22:50:38.380Z,93033.66
2023-05-10T22:53:09.402Z,93039.78
2023-05-10T22:55:38.906Z,93032.38
2023-05-10T22:58:09.284Z,93031.44
2023-05-10T23:00:39.398Z,93033.22
2023-05-10T23:03:08.957Z,93033.25
2023-05-10T23:05:38.475Z,93030.44
2023-05-10T23:08:09.428Z,93023.75
2023-05-10T23:10:39.407Z,93024.47
2023-05-10T23:13:09.232Z,93024.59
2023-05-10T23:15:40.356Z,93020.53
2023-05-10T23:18:09.984Z,93014.88
2023-05-10T23:20:39.464Z,93012.63
2023-05-10T23:23:10.614Z,93016.53
2023-05-10T23:25:40.383Z,93020.13
2023-05-10T23:28:09.880Z,93020.78
2023-05-10T23:30:39.234Z,93025.19
2023-05-10T23:33:09.372Z,93023.25
2023-05-10T23:35:39.002Z,93018.91
2023-05-10T23:38:10.295Z,93017.22
2023-05-10T23:40:39.899Z,93019.91
2023-05-10T23:43:09.519Z,93013.94
2023-05-10T23:45:39.073Z,93015.03
2023-05-10T23:48:08.560Z,93018.63
2023-05-10T23:50:38.500Z,93010.09
2023-05-10T23:53:09.409Z,93011.88
2023-05-10T23:55:39.009Z,93016.38
2023-05-10T23:58:08.450Z,93013.78
